Terminal Aerodrome Forecast
Issued by NWS

Home | Current Version | Previous Version | Text Only | Print | Product List | Glossary On
Versions: 1 2 3 4 5 6 7 8 9 10 11 12 13
000
FTUS43 KSGF 222300 CCA
TAFJLN
TAF COR
KJLN 222346Z 2300/2324 23008G18KT P6SM SKC
     FM230600 22004KT P6SM VCSH SCT050 OVC250
     FM231300 36005KT P6SM SCT050 OVC150
     FM231800 02010KT P6SM BKN250=

USA.gov is the U.S. government's official web portal to all federal, state and local government web resources and services.